Brechin, United Kingdom
Current Conditions -  °F | °C
As of 5:50 PM on Friday 21 Nov 2014 (Local Time) from EGPN Reporting Station
Broken Clouds Broken Clouds  
Wind Chill:   Ceiling: 3000
Heat Index:   Visibility: 6mi
Dew Point:   Wind: 16mph
Humidity: 82%   Direction: 120°ESE
Pressure: 29.94"   Gusts: 35mph
Location:  56.73°N, 2.66°W
Report Text: EGPN 211750Z 12014G30KT 9000 SCT018 BKN030 09/06 Q1014
Loading
Personal Weather Stations






























Interactive Weather Map New forecast layout! Learn more

10-Day Weather Forecast

Advertisements
Track Severe Weather on mobile